Time;durP1;ratioP1;P1;durP2;ratioP2;P2;SDS_P1;SDS_P2;PMS_P1;PMS_P2;Temp;Humidity;BMP_temperature;BMP_pressure;BME280_temperature;BME280_humidity;BME280_pressure;Samples;Min_cycle;Max_cycle;Signal;HPM_P1;HPM_P2
2021/03/01 00:01:29;;;;;;;101.50;49.47;;;;;;;;;;5017088;28;20366;-63
2021/03/01 00:03:59;;;;;;;109.22;50.22;;;;;;;;;;5017331;28;20018;-63
2021/03/01 00:06:25;;;;;;;89.78;47.35;;;;;;;;;;5017019;28;20056;-64
2021/03/01 00:08:52;;;;;;;90.97;46.55;;;;;;;;;;5016899;28;20056;-64
2021/03/01 00:11:18;;;;;;;89.07;45.33;;;;;;;;;;5017171;28;20057;-63
2021/03/01 00:13:44;;;;;;;89.53;44.63;;;;;;;;;;5016837;28;20465;-63
2021/03/01 00:16:10;;;;;;;79.82;41.95;;;;;;;;;;5016826;28;20030;-62
2021/03/01 00:18:39;;;;;;;90.07;43.78;;;;;;;;;;5016663;28;20477;-62
2021/03/01 00:21:06;;;;;;;85.63;43.88;;;;;;;;;;5016685;28;20029;-64
2021/03/01 00:23:35;;;;;;;83.95;43.40;;;;;;;;;;5017197;28;20037;-63
2021/03/01 00:26:01;;;;;;;80.82;41.45;;;;;;;;;;5016975;28;20021;-62
2021/03/01 00:28:30;;;;;;;79.00;41.58;;;;;;;;;;5016197;28;20034;-64
2021/03/01 00:30:57;;;;;;;74.80;40.30;;;;;;;;;;5016505;28;20026;-64
2021/03/01 00:33:28;;;;;;;73.85;39.63;;;;;;;;;;5016469;28;20018;-64
2021/03/01 00:35:55;;;;;;;73.25;39.85;;;;;;;;;;5016323;28;20028;-64
2021/03/01 00:38:21;;;;;;;82.05;42.15;;;;;;;;;;5016545;28;20048;-64
2021/03/01 00:40:47;;;;;;;76.80;40.90;;;;;;;;;;5016658;28;20029;-64
2021/03/01 00:43:13;;;;;;;78.72;40.15;;;;;;;;;;5016266;28;20477;-63
2021/03/01 00:45:39;;;;;;;75.70;40.17;;;;;;;;;;5016418;28;20029;-64
2021/03/01 00:48:09;;;;;;;78.07;40.17;;;;;;;;;;5016097;28;20022;-64
2021/03/01 00:50:36;;;;;;;81.10;41.63;;;;;;;;;;5015960;28;20485;-64
2021/03/01 00:53:02;;;;;;;74.65;37.92;;;;;;;;;;5016124;28;20053;-64
2021/03/01 00:55:28;;;;;;;77.22;40.72;;;;;;;;;;5016030;28;20124;-63
2021/03/01 00:57:55;;;;;;;79.55;41.35;;;;;;;;;;5016147;28;20029;-62
2021/03/01 01:00:21;;;;;;;82.43;40.33;;;;;;;;;;5016293;28;20022;-64
2021/03/01 01:02:48;;;;;;;78.68;41.50;;;;;;;;;;5015956;28;20033;-63
2021/03/01 01:05:17;;;;;;;83.07;40.28;;;;;;;;;;5016504;28;20374;-63
2021/03/01 01:07:44;;;;;;;76.32;40.38;;;;;;;;;;5015871;28;20128;-62
2021/03/01 01:10:10;;;;;;;75.63;39.30;;;;;;;;;;5015489;28;20048;-63
2021/03/01 01:12:40;;;;;;;75.35;39.63;;;;;;;;;;5015726;28;20034;-63
2021/03/01 01:15:08;;;;;;;73.03;39.20;;;;;;;;;;5015765;28;20025;-64
2021/03/01 01:17:35;;;;;;;80.63;40.72;;;;;;;;;;5015516;28;20034;-63
2021/03/01 01:20:01;;;;;;;75.35;40.35;;;;;;;;;;5015922;28;20025;-64
2021/03/01 01:22:27;;;;;;;78.22;39.58;;;;;;;;;;4998226;28;20033;-63
2021/03/01 01:24:53;;;;;;;72.55;38.00;;;;;;;;;;5015756;28;20030;-63
2021/03/01 01:27:19;;;;;;;76.57;37.92;;;;;;;;;;5015503;28;20092;-63
2021/03/01 01:29:45;;;;;;;76.28;40.95;;;;;;;;;;5015749;28;20076;-63
2021/03/01 01:32:11;;;;;;;78.57;40.53;;;;;;;;;;5015382;28;20405;-62
2021/03/01 01:34:37;;;;;;;83.03;42.15;;;;;;;;;;5015295;28;20026;-63
2021/03/01 01:37:03;;;;;;;79.60;41.42;;;;;;;;;;5015564;28;20420;-63
2021/03/01 01:39:29;;;;;;;76.78;41.08;;;;;;;;;;5015019;28;20057;-63
2021/03/01 01:41:55;;;;;;;80.10;41.20;;;;;;;;;;5015452;28;20026;-63
2021/03/01 01:44:22;;;;;;;82.85;41.60;;;;;;;;;;5014800;28;20026;-61
2021/03/01 01:46:48;;;;;;;73.95;39.45;;;;;;;;;;5015246;28;20104;-63
2021/03/01 01:49:14;;;;;;;73.07;38.45;;;;;;;;;;5015580;28;20033;-61
2021/03/01 01:51:42;;;;;;;72.18;37.90;;;;;;;;;;5014738;28;20030;-63
2021/03/01 01:54:09;;;;;;;73.65;39.13;;;;;;;;;;5015248;28;20022;-64
2021/03/01 01:56:35;;;;;;;71.60;38.45;;;;;;;;;;5014735;28;20041;-62
2021/03/01 01:59:01;;;;;;;81.03;39.92;;;;;;;;;;5014819;28;20025;-62
2021/03/01 02:01:27;;;;;;;77.78;39.42;;;;;;;;;;5015437;28;20136;-61
2021/03/01 02:03:53;;;;;;;70.13;38.75;;;;;;;;;;5015323;28;20029;-63
2021/03/01 02:06:25;;;;;;;68.95;37.58;;;;;;;;;;5014407;28;20022;-62
2021/03/01 02:08:51;;;;;;;70.50;37.42;;;;;;;;;;5014536;28;20073;-63
2021/03/01 02:11:29;;;;;;;75.00;38.25;;;;;;;;;;5014720;28;20029;-60
2021/03/01 02:14:07;;;;;;;68.90;35.08;;;;;;;;;;5014584;28;20022;-62
2021/03/01 02:16:35;;;;;;;78.43;37.35;;;;;;;;;;5015078;28;20040;-62
2021/03/01 02:19:01;;;;;;;69.35;36.63;;;;;;;;;;5014497;28;20030;-62
2021/03/01 02:21:28;;;;;;;68.88;35.83;;;;;;;;;;5014531;28;20029;-61
2021/03/01 02:23:54;;;;;;;75.13;37.78;;;;;;;;;;5014070;28;20026;-61
2021/03/01 02:26:32;;;;;;;69.93;36.97;;;;;;;;;;5014415;28;20041;-63
2021/03/01 02:29:06;;;;;;;81.47;39.17;;;;;;;;;;5014357;28;20026;-63
2021/03/01 02:31:32;;;;;;;71.22;38.42;;;;;;;;;;5014690;28;20049;-62
2021/03/01 02:33:59;;;;;;;78.95;39.60;;;;;;;;;;5014124;28;20053;-63
2021/03/01 02:36:28;;;;;;;74.47;38.45;;;;;;;;;;5014839;28;20546;-63
2021/03/01 02:38:55;;;;;;;68.65;36.22;;;;;;;;;;5014497;28;20038;-63
2021/03/01 02:41:22;;;;;;;65.85;36.10;;;;;;;;;;5014053;28;20374;-62
2021/03/01 02:43:49;;;;;;;71.38;36.83;;;;;;;;;;5014276;28;20026;-62
2021/03/01 02:46:15;;;;;;;67.70;36.42;;;;;;;;;;5014317;28;20030;-62
2021/03/01 02:48:42;;;;;;;70.70;36.03;;;;;;;;;;5013927;28;20030;-62
2021/03/01 02:51:08;;;;;;;68.20;34.60;;;;;;;;;;5014048;28;20420;-63
2021/03/01 02:53:36;;;;;;;71.80;36.30;;;;;;;;;;5014180;28;20022;-62
2021/03/01 02:56:02;;;;;;;66.63;35.85;;;;;;;;;;5013951;28;20061;-62
2021/03/01 02:58:29;;;;;;;72.43;37.38;;;;;;;;;;5014121;28;20057;-61
2021/03/01 03:00:56;;;;;;;73.60;37.35;;;;;;;;;;5014082;28;20022;-62
2021/03/01 03:03:23;;;;;;;67.07;36.97;;;;;;;;;;4996221;28;20157;-62
2021/03/01 03:05:50;;;;;;;70.68;35.58;;;;;;;;;;5013615;28;20022;-63
2021/03/01 03:08:16;;;;;;;68.20;35.97;;;;;;;;;;5012925;28;20105;-62
2021/03/01 03:10:43;;;;;;;65.70;35.40;;;;;;;;;;5013473;28;20045;-63
2021/03/01 03:13:12;;;;;;;71.60;35.78;;;;;;;;;;5013500;28;20096;-62
2021/03/01 03:15:39;;;;;;;68.35;35.28;;;;;;;;;;5013960;28;20022;-63
2021/03/01 03:18:06;;;;;;;68.55;36.03;;;;;;;;;;5013966;28;20473;-61
2021/03/01 03:20:32;;;;;;;74.32;40.85;;;;;;;;;;5014060;28;20052;-63
2021/03/01 03:22:58;;;;;;;74.50;38.53;;;;;;;;;;5013242;28;20068;-62
2021/03/01 03:25:24;;;;;;;72.88;39.03;;;;;;;;;;5013518;28;20099;-63
2021/03/01 03:27:50;;;;;;;68.00;37.15;;;;;;;;;;5013678;28;20034;-63
2021/03/01 03:30:17;;;;;;;71.35;37.78;;;;;;;;;;5013250;28;20164;-62
2021/03/01 03:32:43;;;;;;;67.22;35.42;;;;;;;;;;5013492;28;20026;-62
2021/03/01 03:35:11;;;;;;;68.13;36.13;;;;;;;;;;5013799;28;20072;-62
2021/03/01 03:37:40;;;;;;;67.93;35.60;;;;;;;;;;5013613;28;20510;-62
2021/03/01 03:40:06;;;;;;;61.97;33.17;;;;;;;;;;5013402;28;20520;-62
2021/03/01 03:42:36;;;;;;;62.08;32.45;;;;;;;;;;5013733;28;20025;-62
2021/03/01 03:45:04;;;;;;;64.68;34.45;;;;;;;;;;5013394;28;20068;-61
2021/03/01 03:47:30;;;;;;;61.03;32.72;;;;;;;;;;5013319;28;20385;-62
2021/03/01 03:49:57;;;;;;;62.03;33.03;;;;;;;;;;5013577;28;20022;-62
2021/03/01 03:52:29;;;;;;;59.38;33.38;;;;;;;;;;5013039;28;20026;-62
2021/03/01 03:54:56;;;;;;;60.40;30.50;;;;;;;;;;5013257;28;20030;-61
2021/03/01 03:57:23;;;;;;;56.60;30.85;;;;;;;;;;5012944;28;20065;-61
2021/03/01 03:59:53;;;;;;;56.20;30.58;;;;;;;;;;5013571;28;20022;-62
2021/03/01 04:02:20;;;;;;;56.38;30.30;;;;;;;;;;5013373;28;20029;-63
2021/03/01 04:04:46;;;;;;;57.88;32.22;;;;;;;;;;5012934;28;20029;-62
2021/03/01 04:07:13;;;;;;;57.35;31.08;;;;;;;;;;5013167;28;20034;-62
2021/03/01 04:09:41;;;;;;;58.28;30.33;;;;;;;;;;5013633;28;20045;-62
2021/03/01 04:12:10;;;;;;;56.63;31.17;;;;;;;;;;5013070;28;20046;-63
2021/03/01 04:14:36;;;;;;;56.88;31.10;;;;;;;;;;5013626;28;20029;-62
2021/03/01 04:17:05;;;;;;;57.92;30.38;;;;;;;;;;5013382;28;20496;-62
2021/03/01 04:19:33;;;;;;;61.47;31.27;;;;;;;;;;5014863;28;20034;-62
2021/03/01 04:22:00;;;;;;;59.53;32.25;;;;;;;;;;5016967;28;20041;-62
2021/03/01 04:24:27;;;;;;;57.75;31.67;;;;;;;;;;5016239;28;20030;-61
2021/03/01 04:26:54;;;;;;;64.60;31.70;;;;;;;;;;5016628;28;20032;-61
2021/03/01 04:29:21;;;;;;;59.95;31.15;;;;;;;;;;5016552;28;20038;-62
2021/03/01 04:31:49;;;;;;;61.80;31.73;;;;;;;;;;5017084;28;20146;-63
2021/03/01 04:34:17;;;;;;;59.58;31.30;;;;;;;;;;5016351;28;20076;-62
2021/03/01 04:36:43;;;;;;;58.95;31.65;;;;;;;;;;5016947;28;20101;-63
2021/03/01 04:39:09;;;;;;;57.58;31.75;;;;;;;;;;5016748;28;20105;-61
2021/03/01 04:41:36;;;;;;;64.53;33.33;;;;;;;;;;5016296;28;20113;-62
2021/03/01 04:44:05;;;;;;;60.13;32.35;;;;;;;;;;5016709;28;20038;-62
2021/03/01 04:46:32;;;;;;;64.88;33.15;;;;;;;;;;5016256;28;20022;-63
2021/03/01 04:49:01;;;;;;;61.42;32.03;;;;;;;;;;5016381;28;20034;-62
2021/03/01 04:51:28;;;;;;;67.30;32.67;;;;;;;;;;5016411;28;20110;-62
2021/03/01 04:53:55;;;;;;;57.45;31.25;;;;;;;;;;5015796;28;20492;-62
2021/03/01 04:56:22;;;;;;;59.65;32.00;;;;;;;;;;5015946;28;20528;-63
2021/03/01 04:58:49;;;;;;;63.10;33.03;;;;;;;;;;5016270;28;20508;-62
2021/03/01 05:01:16;;;;;;;63.72;32.63;;;;;;;;;;5015985;28;20030;-63
2021/03/01 05:03:42;;;;;;;60.90;32.78;;;;;;;;;;5016218;28;20021;-62
2021/03/01 05:06:09;;;;;;;65.63;32.55;;;;;;;;;;5016038;28;20093;-62
2021/03/01 05:08:36;;;;;;;64.40;33.55;;;;;;;;;;5015432;28;20072;-62
2021/03/01 05:11:05;;;;;;;65.30;32.95;;;;;;;;;;5015799;28;20073;-63
2021/03/01 05:13:31;;;;;;;62.35;34.08;;;;;;;;;;5015810;28;20050;-62
2021/03/01 05:15:58;;;;;;;67.18;32.65;;;;;;;;;;5015580;28;20037;-62
2021/03/01 05:18:24;;;;;;;64.32;32.45;;;;;;;;;;5015593;28;20104;-62
2021/03/01 05:20:50;;;;;;;67.75;33.97;;;;;;;;;;5015816;28;20368;-62
2021/03/01 05:23:16;;;;;;;73.43;36.40;;;;;;;;;;5015514;28;20350;-61
2021/03/01 05:25:42;;;;;;;70.15;36.60;;;;;;;;;;5015366;28;20385;-61
2021/03/01 05:28:08;;;;;;;63.78;34.22;;;;;;;;;;5015428;28;20057;-61
2021/03/01 05:30:35;;;;;;;68.50;36.33;;;;;;;;;;5014488;28;20026;-61
2021/03/01 05:33:01;;;;;;;66.47;34.95;;;;;;;;;;5015657;28;20022;-62
2021/03/01 05:35:27;;;;;;;71.43;36.25;;;;;;;;;;5015166;28;20076;-61
2021/03/01 05:37:53;;;;;;;67.40;35.03;;;;;;;;;;5015225;28;20112;-63
2021/03/01 05:40:19;;;;;;;63.55;34.42;;;;;;;;;;5015626;28;20028;-63
2021/03/01 05:42:46;;;;;;;67.22;34.75;;;;;;;;;;5014636;28;20106;-63
2021/03/01 05:45:13;;;;;;;79.85;37.10;;;;;;;;;;5015288;28;20030;-62
2021/03/01 05:47:39;;;;;;;74.70;37.75;;;;;;;;;;5015389;28;20428;-63
2021/03/01 05:50:07;;;;;;;71.07;38.08;;;;;;;;;;5014770;28;20026;-64
2021/03/01 05:52:35;;;;;;;77.18;44.38;;;;;;;;;;5014838;28;20030;-62
2021/03/01 05:55:01;;;;;;;83.63;44.15;;;;;;;;;;5014884;28;20014;-62
2021/03/01 05:57:28;;;;;;;84.95;45.35;;;;;;;;;;5014895;28;20108;-62
2021/03/01 05:59:54;;;;;;;89.13;47.03;;;;;;;;;;5014567;28;20376;-62
2021/03/01 06:02:21;;;;;;;84.22;43.70;;;;;;;;;;5014544;28;20018;-63
2021/03/01 06:04:47;;;;;;;71.32;38.03;;;;;;;;;;5014274;28;20033;-64
2021/03/01 06:07:13;;;;;;;68.15;34.22;;;;;;;;;;5014837;28;20026;-63
2021/03/01 06:09:40;;;;;;;57.78;31.83;;;;;;;;;;5014524;28;20478;-62
2021/03/01 06:12:06;;;;;;;58.17;31.15;;;;;;;;;;5013665;28;20060;-66
2021/03/01 06:14:33;;;;;;;56.15;30.15;;;;;;;;;;5014714;28;20056;-66
2021/03/01 06:17:12;;;;;;;59.13;30.88;;;;;;;;;;4996527;28;20444;-62
2021/03/01 06:19:45;;;;;;;47.83;27.98;;;;;;;;;;5001899;28;20030;-62
2021/03/01 06:22:11;;;;;;;59.03;31.77;;;;;;;;;;5004382;28;20018;-62
2021/03/01 06:24:38;;;;;;;58.90;32.03;;;;;;;;;;5010320;28;20033;-64
2021/03/01 06:27:04;;;;;;;62.63;33.72;;;;;;;;;;5012085;28;20064;-63
2021/03/01 06:29:31;;;;;;;55.35;30.63;;;;;;;;;;5013207;28;20485;-62
2021/03/01 06:31:57;;;;;;;56.42;31.38;;;;;;;;;;5011045;28;20030;-61
2021/03/01 06:34:25;;;;;;;55.58;29.98;;;;;;;;;;5009055;28;20493;-62
2021/03/01 06:37:02;;;;;;;49.83;28.60;;;;;;;;;;5007569;28;20026;-63
2021/03/01 06:39:29;;;;;;;54.85;30.05;;;;;;;;;;5004418;28;20018;-62
2021/03/01 06:41:56;;;;;;;53.47;30.15;;;;;;;;;;5013089;28;20037;-64
2021/03/01 06:44:22;;;;;;;53.22;29.30;;;;;;;;;;5013189;28;20030;-63
2021/03/01 06:46:52;;;;;;;54.42;30.02;;;;;;;;;;5012426;28;20416;-63
2021/03/01 06:49:19;;;;;;;54.60;29.17;;;;;;;;;;5013657;28;20034;-64
2021/03/01 06:51:45;;;;;;;51.35;28.98;;;;;;;;;;5013929;28;20094;-64
2021/03/01 06:54:12;;;;;;;52.05;29.50;;;;;;;;;;5013418;28;20045;-66
2021/03/01 06:56:39;;;;;;;50.05;28.60;;;;;;;;;;5013675;28;20096;-64
2021/03/01 06:59:18;;;;;;;52.20;29.27;;;;;;;;;;5014226;28;20026;-64
2021/03/01 07:01:45;;;;;;;49.85;28.55;;;;;;;;;;5013838;28;20416;-63
2021/03/01 07:04:17;;;;;;;48.60;27.85;;;;;;;;;;5010986;28;20413;-63
2021/03/01 07:06:43;;;;;;;;;;;;;;;;;;5014125;28;20095;-65
2021/03/01 07:09:13;;;;;;;49.17;28.63;;;;;;;;;;5013454;28;19952;-64
2021/03/01 07:11:39;;;;;;;48.95;28.08;;;;;;;;;;5013958;28;20050;-62
2021/03/01 07:14:06;;;;;;;49.28;28.42;;;;;;;;;;5013003;28;20509;-63
2021/03/01 07:16:37;;;;;;;51.67;27.92;;;;;;;;;;5013264;28;20358;-62
2021/03/01 07:19:05;;;;;;;39.63;21.52;;;;;;;;;;5012825;28;20101;-63
2021/03/01 07:21:31;;;;;;;49.10;27.50;;;;;;;;;;5013542;28;20018;-62
2021/03/01 07:23:58;;;;;;;47.58;27.23;;;;;;;;;;5012757;28;20141;-62
2021/03/01 07:26:25;;;;;;;48.13;27.15;;;;;;;;;;5013185;28;20024;-62
2021/03/01 07:28:51;;;;;;;50.70;28.30;;;;;;;;;;5013250;28;20468;-63
2021/03/01 07:31:18;;;;;;;45.50;26.13;;;;;;;;;;5013092;28;20053;-63
2021/03/01 07:33:44;;;;;;;48.58;27.85;;;;;;;;;;5013276;28;20128;-65
2021/03/01 07:36:11;;;;;;;50.47;28.20;;;;;;;;;;5013650;28;20036;-64
2021/03/01 07:38:38;;;;;;;49.33;26.80;;;;;;;;;;5013771;28;20057;-63
2021/03/01 07:41:04;;;;;;;47.38;27.30;;;;;;;;;;5013489;28;20097;-62
2021/03/01 07:43:32;;;;;;;50.97;27.00;;;;;;;;;;5010362;28;20025;-63
2021/03/01 07:45:58;;;;;;;49.05;27.83;;;;;;;;;;5013349;28;20048;-65
2021/03/01 07:48:33;;;;;;;48.92;28.13;;;;;;;;;;5012915;28;20037;-64
2021/03/01 07:50:59;;;;;;;52.10;27.80;;;;;;;;;;5010382;28;20389;-62
2021/03/01 07:53:44;;;;;;;47.65;27.20;;;;;;;;;;5013370;28;20034;-63
2021/03/01 07:56:25;;;;;;;51.08;28.58;;;;;;;;;;5016887;28;20036;-62
2021/03/01 07:59:01;;;;;;;46.10;27.27;;;;;;;;;;5015035;28;20052;-64
2021/03/01 08:01:28;;;;;;;48.15;26.77;;;;;;;;;;5012791;28;20431;-65
2021/03/01 08:03:54;;;;;;;48.95;27.17;;;;;;;;;;5016602;28;20056;-65
2021/03/01 08:06:20;;;;;;;49.67;26.75;;;;;;;;;;5017321;28;20030;-63
2021/03/01 08:08:48;;;;;;;51.15;26.95;;;;;;;;;;5017424;28;20038;-64
2021/03/01 08:11:14;;;;;;;47.03;26.10;;;;;;;;;;5016563;28;20080;-63
2021/03/01 08:13:40;;;;;;;42.70;26.20;;;;;;;;;;5016826;28;20108;-64
2021/03/01 08:16:19;;;;;;;44.47;24.98;;;;;;;;;;5015057;28;20022;-64
2021/03/01 08:18:54;;;;;;;46.92;26.05;;;;;;;;;;5016069;28;20033;-65
2021/03/01 08:21:21;;;;;;;44.95;25.15;;;;;;;;;;5013293;28;20030;-66
2021/03/01 08:23:48;;;;;;;52.78;24.85;;;;;;;;;;5013498;28;20049;-65
2021/03/01 08:26:28;;;;;;;42.45;24.63;;;;;;;;;;5013815;28;20373;-66
2021/03/01 08:28:56;;;;;;;38.08;20.75;;;;;;;;;;5013674;28;20529;-65
2021/03/01 08:31:23;;;;;;;34.63;20.23;;;;;;;;;;5013783;28;20037;-65
2021/03/01 08:33:49;;;;;;;40.50;23.13;;;;;;;;;;5014732;28;20022;-65
2021/03/01 08:36:15;;;;;;;39.22;21.08;;;;;;;;;;5014452;28;20453;-66
2021/03/01 08:38:42;;;;;;;34.28;21.38;;;;;;;;;;5014718;28;20026;-64
2021/03/01 08:41:09;;;;;;;36.10;20.00;;;;;;;;;;5015102;28;20041;-64
2021/03/01 08:43:35;;;;;;;39.78;21.35;;;;;;;;;;5015305;28;20164;-65
2021/03/01 08:46:02;;;;;;;33.95;19.40;;;;;;;;;;5015078;28;20030;-63
2021/03/01 08:48:28;;;;;;;34.70;19.38;;;;;;;;;;5014983;28;20030;-64
2021/03/01 08:50:55;;;;;;;35.97;19.90;;;;;;;;;;5015155;28;20018;-64
2021/03/01 08:53:23;;;;;;;41.42;21.50;;;;;;;;;;5014906;28;20033;-63
2021/03/01 08:55:49;;;;;;;42.85;22.00;;;;;;;;;;5015269;28;20021;-62
2021/03/01 08:58:16;;;;;;;37.83;18.73;;;;;;;;;;5014712;28;20429;-65
2021/03/01 09:00:52;;;;;;;34.50;19.02;;;;;;;;;;5014859;28;20101;-64
2021/03/01 09:03:21;;;;;;;37.22;20.67;;;;;;;;;;5015162;28;20089;-65
2021/03/01 09:05:49;;;;;;;34.58;19.40;;;;;;;;;;5014732;28;20104;-64
2021/03/01 09:08:22;;;;;;;39.08;22.23;;;;;;;;;;5014606;28;20068;-65
2021/03/01 09:10:49;;;;;;;43.42;23.33;;;;;;;;;;5015052;28;20072;-65
2021/03/01 09:13:22;;;;;;;42.38;22.77;;;;;;;;;;5016035;28;20116;-66
2021/03/01 09:15:49;;;;;;;37.72;21.65;;;;;;;;;;5015938;28;20412;-66
2021/03/01 09:18:15;;;;;;;36.90;20.25;;;;;;;;;;5016038;28;20034;-63
2021/03/01 09:20:44;;;;;;;35.33;20.08;;;;;;;;;;5015686;28;20029;-63
2021/03/01 09:23:10;;;;;;;31.35;17.58;;;;;;;;;;5015487;28;20045;-63
2021/03/01 09:25:37;;;;;;;34.45;18.92;;;;;;;;;;5015377;28;20024;-65
2021/03/01 09:28:04;;;;;;;36.30;21.27;;;;;;;;;;5014754;28;20030;-64
2021/03/01 09:30:31;;;;;;;31.30;18.98;;;;;;;;;;5015527;28;20030;-65
2021/03/01 09:32:58;;;;;;;29.95;17.70;;;;;;;;;;5015237;28;20025;-64
2021/03/01 09:35:24;;;;;;;31.38;17.63;;;;;;;;;;5014809;28;20386;-64
2021/03/01 09:37:51;;;;;;;30.90;17.10;;;;;;;;;;5015363;28;20157;-64
2021/03/01 09:40:19;;;;;;;34.15;19.00;;;;;;;;;;5014586;28;20500;-69
2021/03/01 09:42:56;;;;;;;29.25;16.95;;;;;;;;;;4997486;28;20465;-66
2021/03/01 09:45:22;;;;;;;25.80;15.73;;;;;;;;;;4995506;28;20505;-67
2021/03/01 09:47:50;;;;;;;34.38;16.77;;;;;;;;;;4995248;28;20057;-65
2021/03/01 09:50:17;;;;;;;29.50;17.02;;;;;;;;;;4995383;28;20073;-62
2021/03/01 09:52:45;;;;;;;24.50;15.27;;;;;;;;;;4995524;28;20048;-66
2021/03/01 09:55:11;;;;;;;27.80;16.10;;;;;;;;;;5000152;28;20025;-66
2021/03/01 09:57:37;;;;;;;28.13;15.43;;;;;;;;;;5012565;28;20049;-65
2021/03/01 10:00:35;;;;;;;27.98;15.90;;;;;;;;;;5011903;28;20030;-65
2021/03/01 10:03:02;;;;;;;37.55;20.00;;;;;;;;;;4960306;28;20490;-63
2021/03/01 10:05:30;;;;;;;32.78;17.95;;;;;;;;;;4960971;28;20736;-65
2021/03/01 10:07:56;;;;;;;26.65;15.93;;;;;;;;;;4961621;28;20047;-68
2021/03/01 10:10:23;;;;;;;26.95;15.60;;;;;;;;;;4969220;28;20053;-63
2021/03/01 10:12:50;;;;;;;23.00;14.05;;;;;;;;;;4954360;28;20051;-64
2021/03/01 10:15:16;;;;;;;25.20;14.73;;;;;;;;;;4954028;28;20110;-66
2021/03/01 10:17:47;;;;;;;27.20;14.90;;;;;;;;;;4963745;28;20034;-64
2021/03/01 10:20:14;;;;;;;28.20;15.15;;;;;;;;;;4953514;28;20043;-63
2021/03/01 10:22:59;;;;;;;27.50;16.33;;;;;;;;;;4956389;28;20043;-67
2021/03/01 10:25:39;;;;;;;26.38;15.38;;;;;;;;;;4964510;28;20047;-65
2021/03/01 10:28:06;;;;;;;27.67;15.57;;;;;;;;;;4947471;28;20063;-69
2021/03/01 10:30:37;;;;;;;23.88;14.27;;;;;;;;;;4952281;28;20106;-65
2021/03/01 10:33:09;;;;;;;26.00;14.32;;;;;;;;;;4963695;28;20039;-65
2021/03/01 10:35:51;;;;;;;23.70;13.43;;;;;;;;;;4951414;28;20110;-69
2021/03/01 10:38:21;;;;;;;24.83;14.13;;;;;;;;;;4976535;28;20029;-64
2021/03/01 10:40:53;;;;;;;21.75;13.68;;;;;;;;;;5013021;28;20034;-65
2021/03/01 10:43:19;;;;;;;23.50;14.32;;;;;;;;;;5003376;28;20033;-64
2021/03/01 10:45:49;;;;;;;25.85;14.52;;;;;;;;;;5013064;28;20461;-65
2021/03/01 10:48:16;;;;;;;24.92;15.43;;;;;;;;;;5012230;28;20026;-64
2021/03/01 10:50:42;;;;;;;25.75;14.75;;;;;;;;;;5010983;28;20022;-64
2021/03/01 10:53:08;;;;;;;27.40;13.45;;;;;;;;;;5010621;28;20042;-65
2021/03/01 10:55:37;;;;;;;25.58;14.05;;;;;;;;;;5011731;28;20022;-63
2021/03/01 10:58:11;;;;;;;22.83;14.25;;;;;;;;;;5011111;28;20104;-64
2021/03/01 11:00:38;;;;;;;26.50;14.88;;;;;;;;;;5012247;28;20493;-66
2021/03/01 11:03:05;;;;;;;26.10;13.88;;;;;;;;;;5012456;28;20037;-63
2021/03/01 11:05:31;;;;;;;25.83;13.75;;;;;;;;;;5012273;28;20018;-63
2021/03/01 11:07:59;;;;;;;25.17;13.77;;;;;;;;;;5012359;28;20053;-64
2021/03/01 11:10:29;;;;;;;26.40;13.43;;;;;;;;;;5012982;28;21077;-64
2021/03/01 11:12:59;;;;;;;26.42;14.10;;;;;;;;;;5012601;28;20088;-64
2021/03/01 11:15:56;;;;;;;25.90;14.35;;;;;;;;;;5010404;28;20010;-65
2021/03/01 11:18:22;;;;;;;24.83;13.68;;;;;;;;;;5011569;28;20040;-64
2021/03/01 11:20:55;;;;;;;24.60;14.57;;;;;;;;;;5012788;28;20428;-66
2021/03/01 11:23:26;;;;;;;27.08;14.45;;;;;;;;;;5010416;28;20018;-65
2021/03/01 11:25:55;;;;;;;28.17;14.63;;;;;;;;;;5012638;28;20056;-65
2021/03/01 11:28:22;;;;;;;24.70;13.93;;;;;;;;;;5009520;28;20022;-64
2021/03/01 11:30:48;;;;;;;27.08;14.85;;;;;;;;;;5011846;28;20500;-64
2021/03/01 11:33:14;;;;;;;24.90;14.50;;;;;;;;;;5011221;28;20042;-65
2021/03/01 11:35:46;;;;;;;24.33;13.93;;;;;;;;;;5010703;28;20026;-64
2021/03/01 11:38:12;;;;;;;;;;;;;;;;;;5012432;28;20057;-66
2021/03/01 11:40:43;;;;;;;27.58;15.00;;;;;;;;;;5011671;28;19953;-66
2021/03/01 11:43:11;;;;;;;25.92;15.73;;;;;;;;;;5012329;28;20097;-64
2021/03/01 11:45:37;;;;;;;29.55;15.73;;;;;;;;;;5010221;28;20478;-64
2021/03/01 11:48:03;;;;;;;27.15;14.90;;;;;;;;;;5000761;28;20037;-64
2021/03/01 11:50:29;;;;;;;22.85;13.55;;;;;;;;;;5012133;28;20474;-65
2021/03/01 11:52:55;;;;;;;24.85;13.90;;;;;;;;;;5013586;28;20421;-65
2021/03/01 11:55:21;;;;;;;28.02;14.70;;;;;;;;;;5011602;28;20026;-63
2021/03/01 11:57:48;;;;;;;27.40;15.10;;;;;;;;;;4995015;28;20409;-64
2021/03/01 12:00:16;;;;;;;23.30;13.93;;;;;;;;;;5012842;28;20029;-65
2021/03/01 12:02:42;;;;;;;37.63;18.73;;;;;;;;;;5013009;28;20469;-67
2021/03/01 12:05:09;;;;;;;23.50;14.55;;;;;;;;;;5012547;28;20076;-63
2021/03/01 12:07:36;;;;;;;22.42;13.32;;;;;;;;;;5011428;28;20038;-65
2021/03/01 12:10:02;;;;;;;23.90;13.98;;;;;;;;;;5011947;28;20358;-65
2021/03/01 12:12:32;;;;;;;29.08;15.85;;;;;;;;;;5011973;28;20049;-64
2021/03/01 12:14:58;;;;;;;26.90;13.75;;;;;;;;;;5011340;28;20049;-65
2021/03/01 12:17:24;;;;;;;35.60;18.40;;;;;;;;;;5011197;28;20041;-65
2021/03/01 12:19:50;;;;;;;27.05;15.60;;;;;;;;;;5012022;28;20022;-65
2021/03/01 12:22:17;;;;;;;26.10;15.43;;;;;;;;;;5011693;28;20512;-65
2021/03/01 12:24:43;;;;;;;24.13;12.50;;;;;;;;;;5011210;28;20034;-65
2021/03/01 12:27:09;;;;;;;21.40;11.98;;;;;;;;;;5011211;28;20527;-64
2021/03/01 12:29:35;;;;;;;24.23;12.32;;;;;;;;;;5011491;28;20088;-65
2021/03/01 12:32:01;;;;;;;22.83;12.07;;;;;;;;;;5011420;28;20428;-64
2021/03/01 12:34:27;;;;;;;23.23;11.68;;;;;;;;;;5012648;28;20056;-67
2021/03/01 12:36:53;;;;;;;24.52;12.60;;;;;;;;;;5011633;28;20029;-65
2021/03/01 12:39:19;;;;;;;24.10;13.35;;;;;;;;;;5008750;28;20022;-64
2021/03/01 12:41:45;;;;;;;24.60;13.60;;;;;;;;;;5011885;28;20022;-64
2021/03/01 12:44:11;;;;;;;26.88;14.95;;;;;;;;;;5012674;28;20061;-66
2021/03/01 12:46:38;;;;;;;21.77;13.68;;;;;;;;;;4997599;28;20034;-64
2021/03/01 12:49:04;;;;;;;21.02;12.73;;;;;;;;;;5013370;28;20084;-66
2021/03/01 12:51:30;;;;;;;24.38;14.43;;;;;;;;;;5013686;28;20045;-66
2021/03/01 12:53:57;;;;;;;23.55;13.43;;;;;;;;;;5015600;28;20526;-65
2021/03/01 12:56:23;;;;;;;20.95;13.15;;;;;;;;;;5016066;28;20157;-66
2021/03/01 12:58:49;;;;;;;23.35;12.15;;;;;;;;;;5016393;28;20029;-64
2021/03/01 13:01:15;;;;;;;23.27;13.75;;;;;;;;;;5015595;28;20377;-64
2021/03/01 13:03:43;;;;;;;24.67;14.05;;;;;;;;;;5015841;28;20365;-64
2021/03/01 13:06:10;;;;;;;22.70;12.32;;;;;;;;;;5016604;28;20033;-63
2021/03/01 13:08:36;;;;;;;20.38;11.98;;;;;;;;;;5015436;28;20029;-67
2021/03/01 13:11:02;;;;;;;24.27;13.48;;;;;;;;;;5015619;28;20030;-63
2021/03/01 13:13:29;;;;;;;26.27;13.00;;;;;;;;;;5014738;28;20121;-64
2021/03/01 13:15:55;;;;;;;23.55;13.00;;;;;;;;;;5014672;28;20029;-63
2021/03/01 13:18:21;;;;;;;20.90;12.63;;;;;;;;;;5015295;28;20044;-63
2021/03/01 13:20:47;;;;;;;22.13;13.35;;;;;;;;;;5015723;28;20064;-66
2021/03/01 13:23:13;;;;;;;22.52;13.50;;;;;;;;;;5012439;28;20052;-67
2021/03/01 13:25:39;;;;;;;25.27;13.35;;;;;;;;;;5014348;28;20410;-68
2021/03/01 13:28:05;;;;;;;28.38;14.90;;;;;;;;;;4997903;28;20034;-66
2021/03/01 13:30:31;;;;;;;22.05;12.05;;;;;;;;;;5015859;28;20026;-66
2021/03/01 13:32:57;;;;;;;22.73;13.13;;;;;;;;;;5015301;28;20022;-66
2021/03/01 13:35:24;;;;;;;24.33;13.65;;;;;;;;;;5015525;28;20071;-68
2021/03/01 13:37:50;;;;;;;26.83;13.77;;;;;;;;;;5014157;28;20038;-66
2021/03/01 13:40:16;;;;;;;23.70;13.13;;;;;;;;;;5013674;28;20029;-66
2021/03/01 13:42:42;;;;;;;24.88;13.82;;;;;;;;;;5013456;28;20037;-65
2021/03/01 13:45:09;;;;;;;22.27;13.00;;;;;;;;;;5014163;28;20018;-67
2021/03/01 13:47:35;;;;;;;21.95;12.18;;;;;;;;;;5012574;28;20061;-66
2021/03/01 13:50:02;;;;;;;24.83;12.65;;;;;;;;;;5009044;28;20037;-68
2021/03/01 13:52:28;;;;;;;19.15;11.40;;;;;;;;;;5013495;28;20022;-66
2021/03/01 13:54:54;;;;;;;27.35;15.48;;;;;;;;;;5015087;28;20098;-69
2021/03/01 13:57:20;;;;;;;49.88;23.75;;;;;;;;;;4995579;28;20032;-66
2021/03/01 13:59:47;;;;;;;22.25;12.52;;;;;;;;;;5012664;28;20113;-66
2021/03/01 14:02:13;;;;;;;19.33;11.68;;;;;;;;;;5013953;28;20078;-65
2021/03/01 14:04:39;;;;;;;19.48;12.82;;;;;;;;;;5010960;28;20022;-66
2021/03/01 14:07:05;;;;;;;22.15;13.07;;;;;;;;;;5010383;28;20054;-66
2021/03/01 14:09:31;;;;;;;43.70;20.55;;;;;;;;;;5013701;28;20026;-66
2021/03/01 14:11:57;;;;;;;21.58;12.48;;;;;;;;;;5013341;28;20125;-65
2021/03/01 14:14:23;;;;;;;23.95;13.40;;;;;;;;;;5012778;28;20428;-67
2021/03/01 14:16:50;;;;;;;21.50;12.30;;;;;;;;;;4996074;28;20447;-65
2021/03/01 14:19:16;;;;;;;23.38;13.20;;;;;;;;;;5013737;28;20076;-65
2021/03/01 14:21:42;;;;;;;23.73;13.10;;;;;;;;;;5012928;28;20373;-66